Time;durP1;ratioP1;P1;durP2;ratioP2;P2;SDS_P1;SDS_P2;PMS_P1;PMS_P2;Temp;Humidity;BMP_temperature;BMP_pressure;BME280_temperature;BME280_humidity;BME280_pressure;Samples;Min_cycle;Max_cycle;Signal;HPM_P1;HPM_P2
2021/09/17 00:02:22;;;;;;;21.00;8.35;;;15.70;99.90;;;;;;20668197;28;20053;-79
2021/09/17 00:12:24;;;;;;;24.08;9.32;;;15.70;99.90;;;;;;20713897;28;20050;-78
2021/09/17 00:22:25;;;;;;;25.35;10.43;;;15.60;99.90;;;;;;20719261;28;20038;-78
2021/09/17 00:32:26;;;;;;;31.38;10.38;;;15.60;99.90;;;;;;20701639;28;20062;-79
2021/09/17 00:42:28;;;;;;;30.30;10.60;;;15.60;99.90;;;;;;20641512;28;20053;-79
2021/09/17 00:52:29;;;;;;;23.05;8.95;;;15.60;99.90;;;;;;20654612;28;20082;-79
2021/09/17 01:02:30;;;;;;;27.35;10.63;;;15.60;99.90;;;;;;20609344;28;20056;-80
2021/09/17 01:12:31;;;;;;;28.27;11.07;;;15.60;99.90;;;;;;20640040;28;20060;-80
2021/09/17 01:22:33;;;;;;;28.88;11.02;;;15.70;99.90;;;;;;20661309;28;20033;-80
2021/09/17 01:32:35;;;;;;;29.25;11.00;;;15.70;99.90;;;;;;20659612;28;20050;-80
2021/09/17 01:42:37;;;;;;;27.70;10.80;;;15.60;99.90;;;;;;20703978;28;20160;-80
2021/09/17 01:52:38;;;;;;;34.17;10.18;;;15.60;99.90;;;;;;20671861;28;20049;-79
2021/09/17 02:02:39;;;;;;;26.50;10.15;;;15.60;99.90;;;;;;20623201;28;20062;-80
2021/09/17 02:12:41;;;;;;;26.85;10.50;;;15.60;99.90;;;;;;20701133;28;20101;-80
2021/09/17 02:22:42;;;;;;;28.88;11.32;;;15.60;99.90;;;;;;20662949;28;20042;-79
2021/09/17 02:32:43;;;;;;;27.17;10.75;;;15.70;99.90;;;;;;20677591;28;20508;-80
2021/09/17 02:42:46;;;;;;;33.30;12.07;;;15.70;99.90;;;;;;20667143;28;20168;-80
2021/09/17 02:52:47;;;;;;;30.80;10.45;;;15.70;99.90;;;;;;20692711;28;20068;-80
2021/09/17 03:02:48;;;;;;;27.50;9.55;;;15.80;99.90;;;;;;20657570;28;20152;-81
2021/09/17 03:12:50;;;;;;;30.58;10.75;;;15.80;99.90;;;;;;20656435;28;20057;-80
2021/09/17 03:22:51;;;;;;;35.80;11.40;;;15.80;99.90;;;;;;20697857;28;20066;-80
2021/09/17 03:32:52;;;;;;;26.80;11.80;;;15.80;99.90;;;;;;20661367;28;20057;-80
2021/09/17 03:42:55;;;;;;;31.80;13.52;;;15.80;99.90;;;;;;20684570;28;20054;-80
2021/09/17 03:52:57;;;;;;;33.85;12.38;;;15.80;99.90;;;;;;20731033;28;20084;-81
2021/09/17 04:02:58;;;;;;;29.45;13.25;;;15.80;99.90;;;;;;20648947;28;22281;-80
2021/09/17 04:13:00;;;;;;;31.17;11.35;;;15.90;99.90;;;;;;20663938;28;20064;-80
2021/09/17 04:23:02;;;;;;;34.70;11.45;;;15.80;99.90;;;;;;20694295;28;20057;-80
2021/09/17 04:33:04;;;;;;;32.22;12.68;;;15.80;99.90;;;;;;20654487;28;20425;-80
2021/09/17 04:43:05;;;;;;;30.45;11.10;;;15.80;99.90;;;;;;20629568;28;20057;-80
2021/09/17 04:53:08;;;;;;;29.48;11.43;;;15.80;99.90;;;;;;20586289;28;20077;-80
2021/09/17 05:03:10;;;;;;;31.95;12.05;;;15.90;99.90;;;;;;20589259;28;20597;-80
2021/09/17 05:13:11;;;;;;;27.50;11.23;;;15.90;99.90;;;;;;20609205;28;20655;-80
2021/09/17 05:23:13;;;;;;;31.48;12.95;;;15.90;99.90;;;;;;20619728;28;20468;-80
2021/09/17 05:33:14;;;;;;;28.38;10.73;;;15.90;99.90;;;;;;20602729;28;20062;-80
2021/09/17 05:43:16;;;;;;;30.95;10.40;;;15.90;99.90;;;;;;20547709;28;20422;-81
2021/09/17 05:53:17;;;;;;;33.72;11.73;;;15.90;99.90;;;;;;20608430;28;20082;-80
2021/09/17 06:03:19;;;;;;;28.90;10.88;;;15.90;99.90;;;;;;20566309;28;20044;-80
2021/09/17 06:13:20;;;;;;;28.25;12.48;;;15.90;99.90;;;;;;20564512;28;20055;-80
2021/09/17 06:23:21;;;;;;;27.88;10.52;;;16.00;99.90;;;;;;20561834;28;20505;-79
2021/09/17 06:33:23;;;;;;;25.05;9.35;;;16.00;99.90;;;;;;20639533;28;20062;-80
2021/09/17 06:43:24;;;;;;;20.17;8.93;;;16.00;99.90;;;;;;20603348;28;20046;-80
2021/09/17 06:53:26;;;;;;;28.42;10.93;;;16.00;99.90;;;;;;20609646;28;20829;-83
2021/09/17 07:03:27;;;;;;;27.95;10.60;;;16.20;99.90;;;;;;20626121;28;20058;-80
2021/09/17 07:13:28;;;;;;;26.75;9.13;;;16.30;99.90;;;;;;20688227;28;20141;-80
2021/09/17 07:23:31;;;;;;;23.65;9.80;;;16.40;99.90;;;;;;20645215;28;20045;-79
2021/09/17 07:33:32;;;;;;;21.70;8.65;;;16.50;99.90;;;;;;20661825;28;20058;-80
2021/09/17 07:43:34;;;;;;;20.85;8.27;;;16.60;99.90;;;;;;20568869;28;20463;-80
2021/09/17 07:53:35;;;;;;;19.42;7.20;;;16.80;99.90;;;;;;20567860;28;20046;-80
2021/09/17 08:03:36;;;;;;;19.58;8.25;;;16.90;99.90;;;;;;20578629;28;20062;-80
2021/09/17 08:13:37;;;;;;;24.20;9.45;;;17.00;99.90;;;;;;20591017;28;20198;-80
2021/09/17 08:23:39;;;;;;;23.83;10.45;;;17.10;99.90;;;;;;20603686;28;20366;-80
2021/09/17 08:33:42;;;;;;;24.52;9.73;;;17.20;99.90;;;;;;20592967;28;20062;-81
2021/09/17 08:43:45;;;;;;;18.80;8.63;;;17.40;99.90;;;;;;20615190;28;20055;-81
2021/09/17 08:53:47;;;;;;;20.10;8.15;;;17.50;99.90;;;;;;20674254;28;20382;-81
2021/09/17 09:03:48;;;;;;;26.10;10.40;;;17.60;99.90;;;;;;20653371;28;20037;-82
2021/09/17 09:14:07;;;;;;;25.88;9.80;;;17.70;99.90;;;;;;20687394;28;20050;-81
2021/09/17 09:24:17;;;;;;;27.48;10.13;;;17.90;99.90;;;;;;20685147;28;20049;-80
2021/09/17 09:34:21;;;;;;;22.15;9.27;;;18.10;99.90;;;;;;20680517;28;20067;-80
2021/09/17 09:44:22;;;;;;;24.77;9.40;;;18.30;99.90;;;;;;20613627;28;20045;-82
2021/09/17 09:54:26;;;;;;;27.73;9.45;;;18.70;99.90;;;;;;20616477;28;20064;-81
2021/09/17 10:04:29;;;;;;;19.58;7.45;;;19.10;99.90;;;;;;20629896;28;20052;-83
2021/09/17 10:14:32;;;;;;;19.33;6.72;;;19.30;99.90;;;;;;20592655;28;20054;-80
2021/09/17 10:24:43;;;;;;;22.35;11.02;;;19.60;99.90;;;;;;20607942;28;20509;-80
2021/09/17 10:34:58;;;;;;;21.25;9.70;;;19.90;99.90;;;;;;20604587;28;20096;-80
2021/09/17 10:45:02;;;;;;;20.55;10.18;;;20.40;99.90;;;;;;20608456;28;20054;-79
2021/09/17 10:55:04;;;;;;;20.33;8.68;;;20.60;99.90;;;;;;20602011;28;20066;-80
2021/09/17 11:05:16;;;;;;;26.23;10.85;;;20.30;99.90;;;;;;20615996;28;20042;-80
2021/09/17 11:15:20;;;;;;;21.42;8.90;;;20.50;99.90;;;;;;20652033;28;20494;-82
2021/09/17 11:25:26;;;;;;;19.75;8.55;;;20.70;99.90;;;;;;20595408;28;20080;-80
2021/09/17 11:35:28;;;;;;;17.00;7.97;;;20.90;99.90;;;;;;20618813;28;20043;-79
2021/09/17 11:45:29;;;;;;;15.68;6.18;;;21.10;99.90;;;;;;20609479;28;20044;-79
2021/09/17 11:55:31;;;;;;;14.25;5.90;;;20.90;99.90;;;;;;20691553;28;20050;-80
2021/09/17 12:05:35;;;;;;;13.43;6.07;;;20.60;99.90;;;;;;20647470;28;20084;-79
2021/09/17 12:15:39;;;;;;;9.85;4.35;;;20.30;99.90;;;;;;20689088;28;20056;-79
2021/09/17 12:25:40;;;;;;;8.25;3.70;;;20.00;99.90;;;;;;20657172;28;20055;-80
2021/09/17 12:35:47;;;;;;;11.10;4.60;;;20.00;99.90;;;;;;20696694;28;20416;-80
2021/09/17 12:46:02;;;;;;;9.52;4.63;;;20.10;99.90;;;;;;20677105;28;20051;-80
2021/09/17 12:56:15;;;;;;;14.68;5.03;;;20.00;99.90;;;;;;20656730;28;20041;-80
2021/09/17 13:06:18;;;;;;;6.05;2.53;;;20.20;99.90;;;;;;20670083;28;20072;-80
2021/09/17 13:16:20;;;;;;;5.28;2.17;;;20.10;99.90;;;;;;20654043;28;20064;-80
2021/09/17 13:26:22;;;;;;;1.65;0.90;;;19.90;99.90;;;;;;20675400;28;20049;-80
2021/09/17 13:36:23;;;;;;;3.13;1.33;;;19.90;99.90;;;;;;20658331;28;20058;-80
2021/09/17 13:46:25;;;;;;;1.65;0.65;;;19.90;99.90;;;;;;20646362;28;20054;-80
2021/09/17 13:56:26;;;;;;;1.60;0.90;;;20.00;99.90;;;;;;20635444;28;20093;-80
2021/09/17 14:06:27;;;;;;;2.72;0.60;;;20.20;99.90;;;;;;20661760;28;20036;-80
2021/09/17 14:16:29;;;;;;;1.42;0.52;;;20.30;99.90;;;;;;20606773;28;20089;-80
2021/09/17 14:26:30;;;;;;;2.42;0.90;;;20.60;99.90;;;;;;20670258;28;20032;-80
2021/09/17 14:36:32;;;;;;;1.05;0.50;;;21.20;99.90;;;;;;20648404;28;20052;-81
2021/09/17 14:46:33;;;;;;;1.90;0.73;;;21.80;99.90;;;;;;20629468;28;20908;-80
2021/09/17 14:56:35;;;;;;;5.30;1.63;;;21.70;99.90;;;;;;20650447;28;20053;-80
2021/09/17 15:06:36;;;;;;;2.78;1.15;;;21.50;99.90;;;;;;20637197;28;20485;-79
2021/09/17 15:16:37;;;;;;;2.70;0.90;;;21.30;99.90;;;;;;20642965;28;20073;-80
2021/09/17 15:26:38;;;;;;;2.28;1.08;;;21.20;99.90;;;;;;20672462;28;20057;-80
2021/09/17 15:36:40;;;;;;;2.83;1.38;;;21.10;99.90;;;;;;20708377;28;20391;-81
2021/09/17 15:46:42;;;;;;;2.58;1.08;;;20.60;99.90;;;;;;20703810;28;20767;-80
2021/09/17 15:56:43;;;;;;;4.75;1.27;;;20.50;99.90;;;;;;20653866;28;20050;-80
2021/09/17 16:06:44;;;;;;;4.47;1.02;;;20.40;99.90;;;;;;20686070;28;20062;-80
2021/09/17 16:16:46;;;;;;;2.47;1.17;;;20.30;99.90;;;;;;20667534;28;20067;-78
2021/09/17 16:26:48;;;;;;;3.30;1.02;;;20.10;99.90;;;;;;20660682;28;20059;-77
2021/09/17 16:36:49;;;;;;;2.55;1.00;;;19.90;99.90;;;;;;20672067;28;20560;-77
2021/09/17 16:46:50;;;;;;;3.45;1.63;;;19.70;99.90;;;;;;20679700;28;20046;-77
2021/09/17 16:56:52;;;;;;;1.98;0.90;;;19.70;99.90;;;;;;20665557;28;20057;-77
2021/09/17 17:06:53;;;;;;;2.05;0.88;;;19.50;99.90;;;;;;20725479;28;20058;-77
2021/09/17 17:16:54;;;;;;;3.03;0.90;;;19.40;99.90;;;;;;20669888;28;20054;-77
2021/09/17 17:26:55;;;;;;;2.33;0.93;;;19.20;99.90;;;;;;20667836;28;20122;-77
2021/09/17 17:37:00;;;;;;;2.63;1.00;;;19.00;99.90;;;;;;20693649;28;20390;-77
2021/09/17 17:47:02;;;;;;;2.70;0.88;;;18.80;99.90;;;;;;20586976;28;20062;-77
2021/09/17 17:57:03;;;;;;;2.50;1.10;;;18.60;99.90;;;;;;20578642;28;20057;-78
2021/09/17 18:07:05;;;;;;;2.72;1.10;;;18.30;99.90;;;;;;20636835;28;20030;-77
2021/09/17 18:17:06;;;;;;;2.67;1.15;;;18.00;99.90;;;;;;20612507;28;20050;-78
2021/09/17 18:27:08;;;;;;;4.82;1.60;;;17.70;99.90;;;;;;20610371;28;20075;-80
2021/09/17 18:37:09;;;;;;;3.15;1.33;;;17.40;99.90;;;;;;20560872;28;20075;-78
2021/09/17 18:47:11;;;;;;;3.85;1.60;;;17.30;99.90;;;;;;20633486;28;20684;-77
2021/09/17 18:57:12;;;;;;;3.25;1.60;;;17.10;99.90;;;;;;20619829;28;20077;-77
2021/09/17 19:07:14;;;;;;;5.45;1.63;;;16.90;99.90;;;;;;20593661;28;20058;-78
2021/09/17 19:17:15;;;;;;;3.58;1.42;;;16.80;99.90;;;;;;20568962;28;20077;-79
2021/09/17 19:27:16;;;;;;;4.20;1.60;;;16.70;99.90;;;;;;20607622;28;20057;-79
2021/09/17 19:37:18;;;;;;;3.45;1.70;;;16.60;99.90;;;;;;20632844;28;20069;-79
2021/09/17 19:47:19;;;;;;;5.78;1.95;;;16.40;99.90;;;;;;20696953;28;20482;-79
2021/09/17 19:57:20;;;;;;;3.85;1.63;;;16.20;99.90;;;;;;20709161;28;20066;-79
2021/09/17 20:07:21;;;;;;;3.72;1.65;;;16.20;99.90;;;;;;20669225;28;20425;-79
2021/09/17 20:17:28;;;;;;;3.67;1.50;;;16.10;99.90;;;;;;20674730;28;20430;-79
2021/09/17 20:27:29;;;;;;;4.32;1.88;;;16.00;99.90;;;;;;20686375;28;20049;-79
2021/09/17 20:37:32;;;;;;;5.03;2.28;;;16.00;99.90;;;;;;20723861;28;20043;-80
2021/09/17 20:47:34;;;;;;;5.63;2.75;;;15.90;99.90;;;;;;20670890;28;20040;-79
2021/09/17 20:57:36;;;;;;;7.70;2.92;;;15.80;99.90;;;;;;20652306;28;20289;-80
2021/09/17 21:07:38;;;;;;;7.50;3.72;;;15.70;99.90;;;;;;20688573;28;20046;-79
2021/09/17 21:17:39;;;;;;;7.13;3.38;;;15.70;99.90;;;;;;20705684;28;20062;-80
2021/09/17 21:27:40;;;;;;;7.03;2.72;;;15.40;99.90;;;;;;20659749;28;20053;-80
2021/09/17 21:37:41;;;;;;;5.18;2.63;;;15.30;99.90;;;;;;20701169;28;20501;-82
2021/09/17 21:47:42;;;;;;;6.05;3.15;;;15.30;99.90;;;;;;20674264;28;20494;-82
2021/09/17 21:57:44;;;;;;;7.63;2.92;;;15.30;99.90;;;;;;20690263;28;20152;-82
2021/09/17 22:07:45;;;;;;;6.72;3.22;;;15.10;99.90;;;;;;20618344;28;20057;-82
2021/09/17 22:17:46;;;;;;;4.88;2.58;;;15.00;99.90;;;;;;20639367;28;20042;-82
2021/09/17 22:27:47;;;;;;;6.05;2.88;;;14.80;99.90;;;;;;20649815;28;20046;-82
2021/09/17 22:37:48;;;;;;;6.20;2.17;;;14.70;99.90;;;;;;20681352;28;20080;-81
2021/09/17 22:47:49;;;;;;;4.35;2.28;;;14.70;99.90;;;;;;20662396;28;20043;-83
2021/09/17 22:57:50;;;;;;;5.18;2.28;;;14.60;99.90;;;;;;20703417;28;20069;-82
2021/09/17 23:07:51;;;;;;;5.38;2.65;;;14.70;99.90;;;;;;20657158;28;20061;-82
2021/09/17 23:17:52;;;;;;;5.18;2.50;;;14.50;99.90;;;;;;20686911;28;20054;-82
2021/09/17 23:27:53;;;;;;;4.35;2.42;;;14.50;99.90;;;;;;20652545;28;20059;-82
2021/09/17 23:37:54;;;;;;;5.35;2.70;;;14.50;99.90;;;;;;20663211;28;20058;-81
2021/09/17 23:47:56;;;;;;;5.18;2.53;;;14.40;99.90;;;;;;20613384;28;20422;-82
2021/09/17 23:57:57;;;;;;;6.30;2.85;;;14.30;99.90;;;;;;20660795;28;20058;-82
